createdAt,value
2017-06-22T00:01:25.176Z,56.70
2017-06-22T00:03:53.479Z,56.80
2017-06-22T00:06:22.539Z,57.30
2017-06-22T00:08:50.838Z,57.10
2017-06-22T00:11:19.156Z,57.30
2017-06-22T00:13:47.451Z,57.60
2017-06-22T00:16:15.737Z,57.70
2017-06-22T00:18:44.038Z,57.90
2017-06-22T00:21:12.319Z,58.10
2017-06-22T00:23:40.856Z,58.10
2017-06-22T00:26:09.250Z,58.30
2017-06-22T00:28:37.539Z,58.50
2017-06-22T00:31:05.863Z,58.60
2017-06-22T00:33:34.915Z,58.70
2017-06-22T00:36:03.227Z,58.70
2017-06-22T00:38:32.284Z,58.50
2017-06-22T00:41:00.587Z,58.90
2017-06-22T00:43:28.867Z,59.20
2017-06-22T00:45:57.187Z,59.20
2017-06-22T00:48:25.459Z,59.40
2017-06-22T00:50:53.776Z,59.60
2017-06-22T00:53:22.060Z,59.70
2017-06-22T00:55:50.368Z,59.80
2017-06-22T00:58:18.648Z,59.90
2017-06-22T01:03:46.602Z,60.20
2017-06-22T01:06:14.908Z,60.40
2017-06-22T01:08:43.183Z,60.50
2017-06-22T01:11:11.455Z,60.70
2017-06-22T01:13:39.771Z,60.80
2017-06-22T01:16:08.166Z,61.00
2017-06-22T01:18:36.449Z,61.00
2017-06-22T01:21:04.719Z,61.30
2017-06-22T01:23:33.026Z,61.40
2017-06-22T01:26:02.061Z,61.50
2017-06-22T01:28:30.359Z,61.40
2017-06-22T01:30:58.635Z,61.30
2017-06-22T01:33:26.940Z,61.30
2017-06-22T01:35:55.210Z,61.40
2017-06-22T01:38:23.508Z,61.50
2017-06-22T01:40:51.779Z,61.70
2017-06-22T01:43:20.083Z,61.60
2017-06-22T01:45:48.372Z,61.70
2017-06-22T01:48:16.642Z,61.90
2017-06-22T01:50:44.944Z,62.10
2017-06-22T01:53:13.210Z,62.20
2017-06-22T01:55:41.498Z,62.30
2017-06-22T01:58:09.775Z,62.30
2017-06-22T02:00:38.063Z,62.30
2017-06-22T02:03:06.355Z,62.30
2017-06-22T02:05:34.655Z,62.50
2017-06-22T02:08:02.934Z,62.70
2017-06-22T02:10:31.226Z,62.70
2017-06-22T02:12:59.502Z,62.90
2017-06-22T02:15:27.795Z,63.00
2017-06-22T02:17:56.063Z,63.00
2017-06-22T02:20:24.372Z,63.10
2017-06-22T02:22:52.643Z,63.10
2017-06-22T02:25:20.918Z,63.20
2017-06-22T02:27:49.209Z,62.90
2017-06-22T02:30:17.490Z,63.20
2017-06-22T02:32:45.787Z,63.10
2017-06-22T02:35:14.852Z,63.10
2017-06-22T02:37:43.160Z,63.10
2017-06-22T02:40:11.439Z,63.20
2017-06-22T02:42:40.502Z,63.40
2017-06-22T02:45:08.788Z,63.10
2017-06-22T02:47:37.083Z,63.20
2017-06-22T02:50:05.360Z,63.10
2017-06-22T02:52:33.655Z,63.20
2017-06-22T02:55:02.703Z,63.50
2017-06-22T02:57:31.009Z,63.50
2017-06-22T02:59:59.280Z,63.70
2017-06-22T03:02:27.564Z,63.80
2017-06-22T03:04:55.859Z,64.00
2017-06-22T03:07:24.140Z,64.10
2017-06-22T03:09:52.503Z,63.90
2017-06-22T03:12:20.793Z,63.90
2017-06-22T03:14:49.211Z,64.20
2017-06-22T03:17:17.499Z,64.30
2017-06-22T03:19:45.875Z,64.30
2017-06-22T03:22:14.158Z,64.40
2017-06-22T03:24:42.455Z,64.50
2017-06-22T03:27:10.744Z,64.80
2017-06-22T03:29:39.055Z,65.00
2017-06-22T03:32:08.116Z,64.90
2017-06-22T03:34:36.540Z,64.80
2017-06-22T03:37:04.824Z,64.90
2017-06-22T03:39:33.107Z,64.80
2017-06-22T03:42:01.419Z,65.00
2017-06-22T03:44:29.703Z,65.00
2017-06-22T03:46:58.007Z,64.90
2017-06-22T03:49:27.072Z,65.30
2017-06-22T03:51:55.369Z,65.00
2017-06-22T03:54:23.644Z,64.90
2017-06-22T03:56:52.031Z,64.80
2017-06-22T03:59:20.320Z,64.80
2017-06-22T04:01:50.763Z,64.40
2017-06-22T04:04:20.659Z,64.40
2017-06-22T04:06:48.940Z,64.10
2017-06-22T04:09:18.011Z,64.70
2017-06-22T04:11:46.283Z,64.20
2017-06-22T04:14:14.587Z,64.20
2017-06-22T04:16:43.636Z,64.40
2017-06-22T04:19:11.983Z,63.70
2017-06-22T04:21:40.272Z,63.40
2017-06-22T04:24:08.571Z,63.40
2017-06-22T04:26:36.871Z,62.80
2017-06-22T04:29:05.178Z,62.10
2017-06-22T04:31:34.235Z,62.60
2017-06-22T04:34:02.516Z,62.60
2017-06-22T04:36:30.811Z,62.20
2017-06-22T04:38:59.092Z,62.20
2017-06-22T04:41:27.488Z,61.80
2017-06-22T04:43:56.535Z,60.70
2017-06-22T04:46:24.839Z,61.30
2017-06-22T04:48:53.137Z,61.50
2017-06-22T04:51:22.199Z,60.50
2017-06-22T04:53:50.508Z,61.20
2017-06-22T04:56:18.835Z,60.60
2017-06-22T04:58:47.116Z,60.10
2017-06-22T05:01:15.403Z,58.80
2017-06-22T05:03:43.717Z,57.50
2017-06-22T05:06:12.007Z,56.70
2017-06-22T05:08:40.316Z,55.50
2017-06-22T05:11:08.619Z,54.40
2017-06-22T05:13:36.924Z,54.00
2017-06-22T05:16:05.204Z,52.10
2017-06-22T05:18:33.647Z,52.00
2017-06-22T05:21:01.948Z,51.10
2017-06-22T05:23:30.263Z,50.20
2017-06-22T05:25:59.572Z,50.10
2017-06-22T05:28:27.852Z,50.00
2017-06-22T05:30:56.156Z,49.20
2017-06-22T05:33:24.471Z,48.70
2017-06-22T05:35:52.776Z,48.50
2017-06-22T05:38:21.061Z,47.80
2017-06-22T05:40:49.359Z,48.00
2017-06-22T05:43:17.647Z,47.20
2017-06-22T05:45:46.856Z,47.50
2017-06-22T05:48:15.151Z,46.80
2017-06-22T05:50:43.466Z,46.60
2017-06-22T05:53:11.749Z,47.00
2017-06-22T05:55:40.077Z,45.70
2017-06-22T05:58:08.363Z,45.20
2017-06-22T06:00:36.672Z,44.90
2017-06-22T06:03:04.988Z,44.60
2017-06-22T06:05:33.295Z,45.50
2017-06-22T06:08:01.599Z,44.80
2017-06-22T06:10:29.923Z,44.90
2017-06-22T06:12:58.260Z,45.00
2017-06-22T06:15:26.581Z,44.20
2017-06-22T06:17:54.911Z,44.10
2017-06-22T06:20:23.951Z,44.10
2017-06-22T06:22:52.270Z,44.00
2017-06-22T06:25:20.551Z,44.30
2017-06-22T06:27:48.847Z,42.60
2017-06-22T06:30:17.212Z,42.60
2017-06-22T06:32:45.508Z,43.10
2017-06-22T06:35:13.804Z,43.00
2017-06-22T06:37:42.086Z,42.50
2017-06-22T06:40:10.388Z,43.20
2017-06-22T06:42:38.691Z,42.50
2017-06-22T06:45:07.760Z,41.90
2017-06-22T06:47:36.062Z,41.80
2017-06-22T06:50:04.350Z,41.90
2017-06-22T06:52:33.431Z,41.20
2017-06-22T06:55:02.484Z,41.90
2017-06-22T06:57:30.781Z,41.80
2017-06-22T06:59:59.083Z,41.60
2017-06-22T07:02:28.151Z,41.10
2017-06-22T07:04:56.449Z,40.90
2017-06-22T07:07:24.752Z,41.00
2017-06-22T07:09:54.360Z,40.80
2017-06-22T07:12:23.439Z,40.80
2017-06-22T07:14:51.718Z,40.70
2017-06-22T07:17:20.800Z,40.50
2017-06-22T07:19:49.159Z,40.40
2017-06-22T07:22:17.504Z,40.10
2017-06-22T07:24:45.803Z,40.50
2017-06-22T07:27:14.353Z,40.30
2017-06-22T07:29:42.657Z,39.60
2017-06-22T07:32:10.932Z,38.90
2017-06-22T07:34:39.231Z,38.80
2017-06-22T07:37:07.521Z,39.70
2017-06-22T07:39:35.812Z,38.20
2017-06-22T07:42:04.084Z,38.70
2017-06-22T07:44:32.383Z,39.00
2017-06-22T07:47:00.663Z,38.40
2017-06-22T07:49:28.968Z,38.30
2017-06-22T07:51:57.236Z,38.60
2017-06-22T07:54:25.552Z,38.40
2017-06-22T07:56:54.043Z,37.80
2017-06-22T07:59:22.325Z,38.00
2017-06-22T08:01:50.635Z,38.90
2017-06-22T08:04:18.921Z,38.30
2017-06-22T08:06:47.336Z,38.60
2017-06-22T08:09:15.620Z,38.90
2017-06-22T08:11:43.916Z,38.80
2017-06-22T08:14:12.203Z,39.10
2017-06-22T08:16:40.501Z,39.10
2017-06-22T08:19:08.791Z,38.80
2017-06-22T08:21:37.128Z,38.50
2017-06-22T08:24:05.408Z,38.70
2017-06-22T08:26:33.715Z,38.10
2017-06-22T08:29:01.999Z,37.70
2017-06-22T08:31:30.377Z,37.20
2017-06-22T08:33:58.675Z,36.70
2017-06-22T08:36:26.952Z,34.90
2017-06-22T08:38:55.247Z,34.20
2017-06-22T08:41:23.516Z,34.30
2017-06-22T08:43:51.815Z,34.00
2017-06-22T08:46:20.112Z,34.00
2017-06-22T08:48:48.404Z,34.00
2017-06-22T08:51:17.451Z,33.00
2017-06-22T08:53:45.739Z,33.00
2017-06-22T08:56:14.052Z,33.00
2017-06-22T08:58:42.520Z,33.10
2017-06-22T09:01:10.936Z,32.80
2017-06-22T09:03:40.342Z,33.20
2017-06-22T09:06:08.673Z,32.90
2017-06-22T09:08:36.954Z,32.10
2017-06-22T09:11:05.237Z,32.50
2017-06-22T09:13:34.539Z,31.90
2017-06-22T09:16:02.822Z,31.90
2017-06-22T09:18:31.113Z,32.20
2017-06-22T09:21:00.195Z,30.50
2017-06-22T09:23:28.471Z,30.50
2017-06-22T09:25:56.815Z,31.90
2017-06-22T09:28:25.087Z,30.60
2017-06-22T09:30:53.444Z,30.80
2017-06-22T09:33:21.727Z,29.30
2017-06-22T09:35:50.033Z,29.30
2017-06-22T09:38:18.569Z,29.90
2017-06-22T09:40:46.843Z,30.10
2017-06-22T09:43:15.141Z,30.80
2017-06-22T09:45:43.399Z,30.20
2017-06-22T09:48:11.723Z,31.10
2017-06-22T09:50:40.015Z,31.50
2017-06-22T09:53:08.308Z,31.70
2017-06-22T09:55:37.344Z,32.40
2017-06-22T09:58:05.660Z,31.80
2017-06-22T10:00:33.916Z,31.30
2017-06-22T10:03:02.223Z,31.10
2017-06-22T10:05:30.507Z,31.60
2017-06-22T10:07:58.791Z,32.00
2017-06-22T10:10:27.096Z,31.20
2017-06-22T10:12:55.374Z,31.40
2017-06-22T10:15:23.680Z,31.30
2017-06-22T10:17:51.977Z,31.90
2017-06-22T10:20:20.279Z,32.30
2017-06-22T10:22:48.651Z,32.10
2017-06-22T10:25:16.960Z,31.90
2017-06-22T10:27:45.292Z,32.50
2017-06-22T10:30:13.600Z,31.60
2017-06-22T10:32:41.879Z,33.30
2017-06-22T10:35:10.920Z,32.80
2017-06-22T10:37:39.227Z,32.80
2017-06-22T10:40:07.511Z,32.10
2017-06-22T10:42:35.859Z,32.70
2017-06-22T10:45:08.035Z,33.30
2017-06-22T10:47:39.467Z,33.20
2017-06-22T10:50:07.779Z,33.20
2017-06-22T10:52:36.084Z,32.60
2017-06-22T10:55:05.120Z,32.40
2017-06-22T10:57:33.431Z,32.30
2017-06-22T11:00:01.708Z,32.30
2017-06-22T11:02:29.983Z,32.20
2017-06-22T11:04:58.267Z,32.50
2017-06-22T11:07:26.537Z,32.60
2017-06-22T11:09:54.930Z,32.40
2017-06-22T11:12:23.204Z,32.10
2017-06-22T11:14:51.500Z,31.90
2017-06-22T11:17:19.779Z,32.50
2017-06-22T11:19:48.081Z,31.70
2017-06-22T11:22:16.365Z,32.20
2017-06-22T11:24:44.661Z,32.10
2017-06-22T11:27:12.948Z,33.00
2017-06-22T11:29:41.268Z,32.30
2017-06-22T11:32:09.555Z,32.60
2017-06-22T11:34:37.993Z,32.10
2017-06-22T11:37:06.295Z,31.60
2017-06-22T11:39:35.341Z,31.10
2017-06-22T11:42:03.630Z,31.00
2017-06-22T11:44:31.934Z,31.80
2017-06-22T11:47:00.219Z,30.60
2017-06-22T11:49:28.498Z,29.80
2017-06-22T11:51:57.568Z,29.90
2017-06-22T11:54:25.847Z,29.80
2017-06-22T11:56:54.165Z,30.30
2017-06-22T11:59:22.426Z,30.00
2017-06-22T12:01:50.708Z,30.10
2017-06-22T12:04:19.766Z,30.60
2017-06-22T12:06:48.032Z,30.50
2017-06-22T12:09:16.375Z,29.90
2017-06-22T12:11:44.660Z,31.00
2017-06-22T12:14:12.963Z,31.40
2017-06-22T12:16:41.275Z,31.60
2017-06-22T12:19:09.608Z,31.60
2017-06-22T12:21:38.703Z,31.10
2017-06-22T12:24:07.003Z,31.10
2017-06-22T12:26:35.321Z,31.70
2017-06-22T12:29:03.615Z,31.60
2017-06-22T12:31:31.917Z,32.50
2017-06-22T12:34:00.964Z,32.90
2017-06-22T12:36:29.291Z,32.90
2017-06-22T12:38:57.673Z,32.80
2017-06-22T12:41:26.833Z,32.90
2017-06-22T12:43:55.143Z,32.90
2017-06-22T12:46:23.536Z,33.20
2017-06-22T12:48:51.831Z,33.60
2017-06-22T12:51:20.179Z,32.50
2017-06-22T12:53:48.495Z,32.10
2017-06-22T12:56:16.774Z,31.90
2017-06-22T12:58:45.828Z,33.70
2017-06-22T13:01:14.113Z,33.10
2017-06-22T13:03:42.427Z,33.10
2017-06-22T13:06:11.509Z,33.10
2017-06-22T13:08:39.810Z,33.10
2017-06-22T13:11:08.103Z,32.80
2017-06-22T13:13:36.399Z,33.10
2017-06-22T13:16:04.684Z,32.90
2017-06-22T13:18:33.013Z,33.20
2017-06-22T13:21:03.260Z,33.00
2017-06-22T13:23:31.567Z,32.90
2017-06-22T13:25:59.871Z,33.10
2017-06-22T13:28:28.213Z,33.30
2017-06-22T13:30:56.530Z,34.10
2017-06-22T13:33:24.823Z,33.70
2017-06-22T13:35:53.903Z,34.00
2017-06-22T13:38:22.179Z,34.00
2017-06-22T13:40:50.505Z,34.00
2017-06-22T13:43:18.788Z,34.40
2017-06-22T13:45:47.106Z,35.30
2017-06-22T13:48:15.420Z,35.10
2017-06-22T13:50:44.551Z,35.10
2017-06-22T13:53:13.032Z,35.10
2017-06-22T13:55:41.303Z,35.80
2017-06-22T13:58:09.639Z,35.60
2017-06-22T14:00:37.979Z,35.80
2017-06-22T14:03:06.310Z,35.90
2017-06-22T14:05:35.344Z,36.30
2017-06-22T14:08:03.984Z,36.40
2017-06-22T14:10:32.287Z,35.50
2017-06-22T14:13:00.580Z,35.40
2017-06-22T14:15:28.887Z,35.20
2017-06-22T14:17:57.179Z,35.20
2017-06-22T14:20:25.467Z,35.10
2017-06-22T14:22:54.585Z,35.40
2017-06-22T14:25:22.875Z,35.30
2017-06-22T14:27:51.175Z,35.10
2017-06-22T14:30:20.312Z,35.30
2017-06-22T14:32:49.355Z,35.10
2017-06-22T14:35:17.661Z,35.10
2017-06-22T14:37:45.928Z,35.80
2017-06-22T14:40:14.318Z,35.50
2017-06-22T14:42:42.595Z,35.30
2017-06-22T14:45:10.883Z,35.10
2017-06-22T14:47:39.196Z,35.10
2017-06-22T14:50:08.245Z,34.70
2017-06-22T14:52:36.520Z,34.70
2017-06-22T14:55:05.049Z,35.70
2017-06-22T14:57:34.094Z,35.20
2017-06-22T15:00:02.370Z,35.20
2017-06-22T15:02:30.675Z,35.10
2017-06-22T15:04:58.996Z,35.30
2017-06-22T15:07:27.344Z,35.70
2017-06-22T15:09:56.392Z,35.40
2017-06-22T15:12:24.690Z,35.40
2017-06-22T15:14:52.974Z,35.70
2017-06-22T15:17:21.266Z,35.30
2017-06-22T15:19:49.548Z,35.20
2017-06-22T15:22:17.857Z,35.50
2017-06-22T15:24:46.144Z,34.90
2017-06-22T15:27:14.420Z,36.10
2017-06-22T15:29:42.717Z,35.00
2017-06-22T15:32:10.988Z,35.60
2017-06-22T15:34:39.291Z,35.40
2017-06-22T15:37:07.596Z,35.50
2017-06-22T15:39:35.922Z,35.70
2017-06-22T15:42:04.200Z,36.00
2017-06-22T15:44:32.474Z,35.90
2017-06-22T15:47:01.532Z,36.20
2017-06-22T15:49:29.811Z,36.20
2017-06-22T15:51:58.107Z,35.70
2017-06-22T15:54:27.163Z,36.60
2017-06-22T15:56:55.450Z,35.90
2017-06-22T15:59:23.921Z,36.10
2017-06-22T16:01:53.235Z,36.60
2017-06-22T16:04:21.538Z,36.60
2017-06-22T16:06:49.859Z,36.20
2017-06-22T16:09:18.157Z,36.60
2017-06-22T16:11:46.488Z,36.50
2017-06-22T16:14:14.820Z,36.70
2017-06-22T16:16:43.385Z,36.20
2017-06-22T16:19:11.752Z,36.80
2017-06-22T16:21:40.059Z,36.00
2017-06-22T16:24:08.372Z,36.10
2017-06-22T16:26:36.651Z,35.50
2017-06-22T16:29:04.949Z,35.60
2017-06-22T16:31:33.242Z,35.80
2017-06-22T16:34:01.546Z,35.80
2017-06-22T16:36:30.631Z,36.30
2017-06-22T16:38:58.932Z,35.90
2017-06-22T16:41:27.311Z,36.60
2017-06-22T16:43:56.397Z,37.00
2017-06-22T16:46:24.734Z,37.00
2017-06-22T16:48:53.080Z,37.40
2017-06-22T16:51:21.363Z,37.60
2017-06-22T16:53:49.644Z,37.30
2017-06-22T16:56:18.032Z,37.60
2017-06-22T16:58:46.327Z,37.90
2017-06-22T17:01:14.675Z,38.00
2017-06-22T17:03:42.953Z,38.10
2017-06-22T17:06:11.281Z,37.10
2017-06-22T17:08:39.655Z,37.40
2017-06-22T17:11:08.078Z,36.90
2017-06-22T17:13:36.351Z,37.40
2017-06-22T17:16:04.656Z,37.40
2017-06-22T17:18:32.935Z,37.90
2017-06-22T17:21:01.257Z,37.40
2017-06-22T17:23:29.558Z,37.40
2017-06-22T17:25:58.226Z,37.60
2017-06-22T17:28:26.616Z,38.00
2017-06-22T17:30:55.864Z,37.80
2017-06-22T17:33:24.157Z,38.10
2017-06-22T17:35:52.440Z,38.00
2017-06-22T17:38:20.848Z,38.20
2017-06-22T17:40:49.173Z,38.40
2017-06-22T17:43:17.500Z,38.50
2017-06-22T17:45:46.016Z,38.70
2017-06-22T17:48:14.313Z,38.60
2017-06-22T17:50:42.692Z,38.80
2017-06-22T17:53:11.001Z,38.80
2017-06-22T17:55:39.388Z,39.00
2017-06-22T17:58:07.716Z,38.60
2017-06-22T18:00:36.012Z,38.70
2017-06-22T18:03:04.659Z,38.60
2017-06-22T18:05:33.042Z,38.90
2017-06-22T18:08:01.348Z,39.10
2017-06-22T18:10:29.703Z,39.10
2017-06-22T18:12:58.020Z,39.40
2017-06-22T18:15:29.135Z,39.40
2017-06-22T18:17:57.470Z,39.50
2017-06-22T18:20:26.084Z,39.60
2017-06-22T18:22:55.760Z,39.80
2017-06-22T18:25:24.470Z,39.80
2017-06-22T18:27:52.920Z,39.70
2017-06-22T18:30:21.223Z,39.90
2017-06-22T18:32:49.548Z,39.80
2017-06-22T18:35:18.244Z,39.90
2017-06-22T18:37:48.101Z,40.10
2017-06-22T18:40:16.376Z,40.10
2017-06-22T18:42:44.711Z,40.00
2017-06-22T18:45:13.027Z,40.00
2017-06-22T18:47:41.479Z,40.00
2017-06-22T18:50:10.632Z,40.10
2017-06-22T18:52:39.109Z,40.10
2017-06-22T18:55:07.427Z,40.20
2017-06-22T18:57:35.847Z,40.00
2017-06-22T19:00:04.138Z,40.30
2017-06-22T19:02:32.461Z,40.10
2017-06-22T19:05:00.864Z,40.00
2017-06-22T19:07:29.929Z,40.60
2017-06-22T19:09:58.231Z,40.50
2017-06-22T19:12:26.516Z,40.30
2017-06-22T19:14:55.588Z,40.20
2017-06-22T19:17:23.875Z,40.30
2017-06-22T19:19:53.047Z,40.50
2017-06-22T19:22:21.376Z,40.40
2017-06-22T19:24:49.687Z,40.70
2017-06-22T19:27:18.076Z,40.10
2017-06-22T19:29:46.441Z,40.30
2017-06-22T19:32:14.727Z,40.40
2017-06-22T19:34:43.074Z,40.60
2017-06-22T19:37:11.404Z,40.80
2017-06-22T19:39:39.782Z,40.80
2017-06-22T19:42:08.076Z,41.00
2017-06-22T19:44:36.365Z,41.10
2017-06-22T19:47:04.683Z,41.20
2017-06-22T19:49:33.031Z,41.20
2017-06-22T19:52:01.344Z,41.30
2017-06-22T19:54:30.417Z,41.80
2017-06-22T19:56:58.753Z,41.70
2017-06-22T19:59:27.046Z,41.40
2017-06-22T20:01:55.362Z,41.40
2017-06-22T20:04:23.695Z,41.70
2017-06-22T20:06:51.991Z,41.70
2017-06-22T20:09:20.313Z,41.80
2017-06-22T20:11:48.613Z,42.30
2017-06-22T20:14:16.915Z,42.60
2017-06-22T20:16:45.266Z,42.50
2017-06-22T20:19:13.595Z,42.60
2017-06-22T20:21:41.956Z,42.70
2017-06-22T20:24:10.356Z,42.90
2017-06-22T20:26:38.922Z,42.90
2017-06-22T20:29:07.326Z,42.90
2017-06-22T20:31:35.611Z,43.00
2017-06-22T20:34:44.123Z,43.10
2017-06-22T20:37:13.257Z,43.20
2017-06-22T20:39:41.571Z,43.10
2017-06-22T20:42:09.872Z,43.10
2017-06-22T20:44:38.177Z,43.20
2017-06-22T20:47:06.498Z,43.20
2017-06-22T20:49:34.807Z,43.10
2017-06-22T20:52:03.108Z,43.10
2017-06-22T20:54:31.471Z,43.10
2017-06-22T20:57:00.527Z,43.70
2017-06-22T20:59:28.839Z,43.10
2017-06-22T21:01:57.184Z,43.00
2017-06-22T21:04:25.575Z,42.70
2017-06-22T21:06:53.875Z,42.70
2017-06-22T21:09:22.209Z,42.90
2017-06-22T21:11:50.484Z,43.00
2017-06-22T21:14:18.823Z,42.80
2017-06-22T21:16:47.099Z,43.20
2017-06-22T21:19:15.387Z,43.00
2017-06-22T21:24:43.191Z,43.20
2017-06-22T21:27:11.476Z,43.30
2017-06-22T21:29:39.763Z,43.20
2017-06-22T21:32:08.067Z,43.50
2017-06-22T21:34:36.358Z,43.40
2017-06-22T21:37:04.667Z,43.90
2017-06-22T21:39:32.953Z,43.80
2017-06-22T21:42:01.259Z,43.90
2017-06-22T21:44:29.600Z,44.10
2017-06-22T21:46:57.907Z,44.30
2017-06-22T21:49:26.198Z,44.30
2017-06-22T21:51:54.519Z,44.40
2017-06-22T21:54:23.571Z,44.60
2017-06-22T21:56:51.881Z,44.60
2017-06-22T21:59:20.980Z,45.00
2017-06-22T22:01:50.110Z,45.80
2017-06-22T22:04:18.399Z,45.20
2017-06-22T22:06:46.735Z,45.10
2017-06-22T22:09:15.035Z,45.20
2017-06-22T22:11:43.506Z,45.30
2017-06-22T22:14:11.878Z,45.40
2017-06-22T22:16:40.950Z,45.50
2017-06-22T22:19:09.244Z,45.50
2017-06-22T22:21:38.404Z,45.60
2017-06-22T22:24:06.689Z,45.60
2017-06-22T22:26:34.971Z,45.80
2017-06-22T22:29:03.289Z,45.80
2017-06-22T22:31:31.584Z,45.70
2017-06-22T22:33:59.894Z,45.90
2017-06-22T22:36:28.216Z,45.80
2017-06-22T22:38:56.665Z,45.80
2017-06-22T22:41:25.793Z,45.90
2017-06-22T22:43:54.091Z,46.40
2017-06-22T22:46:22.403Z,46.60
2017-06-22T22:48:50.716Z,46.50
2017-06-22T22:51:19.091Z,46.60
2017-06-22T22:53:48.209Z,46.70
2017-06-22T22:56:16.519Z,46.50
2017-06-22T22:58:44.896Z,46.60
2017-06-22T23:01:13.199Z,46.20
2017-06-22T23:03:41.506Z,46.20
2017-06-22T23:06:10.569Z,46.10
2017-06-22T23:08:38.855Z,46.00
2017-06-22T23:11:07.628Z,46.10
2017-06-22T23:13:35.918Z,45.80
2017-06-22T23:16:04.995Z,44.90
2017-06-22T23:18:33.417Z,45.20
2017-06-22T23:21:01.697Z,45.20
2017-06-22T23:23:30.023Z,44.80
2017-06-22T23:25:58.361Z,44.80
2017-06-22T23:28:26.652Z,44.30
2017-06-22T23:30:54.956Z,44.00
2017-06-22T23:33:23.273Z,43.90
2017-06-22T23:35:51.563Z,43.70
2017-06-22T23:38:19.908Z,43.50
2017-06-22T23:40:48.195Z,43.10
2017-06-22T23:43:16.511Z,42.90
2017-06-22T23:45:44.783Z,42.90
2017-06-22T23:48:13.068Z,42.90
2017-06-22T23:50:42.159Z,42.50
2017-06-22T23:53:10.436Z,42.90
2017-06-22T23:55:38.745Z,42.80
2017-06-22T23:58:07.060Z,42.70
